Ana Sayfa
METAR-TAF:

METAR-TAF

Havaalanları :

Cebelitarık Havalimanı

Cebelitarık, Cebelitarık

Enlem: 36-09N, Boylam: 005-21W, yükseklik: 5 m

Güncel hava durumu gözlemi

Rapor saat 21:50 UTC de 1 saat ve 15 dakika önce yapıldı.
Rüzgar doğu/kuzeydoğudan 8 kt
Sıcaklık 16°C
Nem 82%
Basınç 1013 hPa
Görüş mesafesi 10 km veya daha fazla

METAR: LXGB 202150Z AUTO 07008KT 9999 // SCT036/// 16/13 Q1013

Saat: 01:05 (23:05 UTC)

Tahmin

Rapor saat 16:42 UTC de 6 saat ve 23 dakika önce yapıldı.
Ayın 20'si saat 18 UTC'den ayın 20'si saat 22 UTC'ye kadar geçerli Tahmin
Rüzgar güney/güneydoğudan 6 kt
Görüş mesafesi 10 km veya daha fazla
3500 ft yükseklikte az bulutlu
5000 ft yükseklikte parçalı bulutlu

TAF: LXGB 201642Z 2018/2022 15006KT 9999 FEW035 SCT050

4.000'den fazla havaalanı için hava durumu gözlemleri ve tahminleri (METAR ve TAF raporları).

Kullanılabilir istasyonlar harita üzerinde sarı ve kırmızı noktalarla gösterilir.

İstasyonun adını görmek için fareyi noktanın üzerinde gezdirin.

Sonrasında hava gözlem ve tahminlerini görmek için tıklayın.

Haritayı değiştirmek için: yaklaştırmak için siyah artı işaretli yeşil düğmeye ve uzaklaştırmak için de eksi işaretli düğmeye hızla tıklayın; bitişik haritalar için yeşil okları kullanın.


METAR-TAF: